sensor_id;sensor_type;location;lat;lon;timestamp;pressure;altitude;pressure_sealevel;temperature;humidity
42297;BME280;72430;47.456;19.016;2024-03-17T00:00:20;100563.91;;;12.57;70.05
42297;BME280;72430;47.456;19.016;2024-03-17T00:03:21;100575.13;;;12.62;69.50
42297;BME280;72430;47.456;19.016;2024-03-17T00:06:22;100575.41;;;12.69;69.28
42297;BME280;72430;47.456;19.016;2024-03-17T00:09:24;100570.84;;;12.69;69.48
42297;BME280;72430;47.456;19.016;2024-03-17T00:12:25;100568.47;;;12.56;70.21
42297;BME280;72430;47.456;19.016;2024-03-17T00:15:26;100576.41;;;12.68;69.76
42297;BME280;72430;47.456;19.016;2024-03-17T00:18:27;100570.00;;;12.69;69.14
42297;BME280;72430;47.456;19.016;2024-03-17T00:21:28;100565.19;;;12.62;69.11
42297;BME280;72430;47.456;19.016;2024-03-17T00:24:29;100562.63;;;12.61;68.87
42297;BME280;72430;47.456;19.016;2024-03-17T00:27:35;100568.47;;;12.46;70.11
42297;BME280;72430;47.456;19.016;2024-03-17T00:30:40;100568.75;;;12.53;69.38
42297;BME280;72430;47.456;19.016;2024-03-17T00:33:41;100573.00;;;12.56;69.09
42297;BME280;72430;47.456;19.016;2024-03-17T00:36:42;100569.34;;;12.47;69.72
42297;BME280;72430;47.456;19.016;2024-03-17T00:39:43;100577.44;;;12.47;70.21
42297;BME280;72430;47.456;19.016;2024-03-17T00:42:44;100575.03;;;12.34;70.35
42297;BME280;72430;47.456;19.016;2024-03-17T00:45:51;100575.88;;;12.44;70.14
42297;BME280;72430;47.456;19.016;2024-03-17T00:48:52;100584.13;;;12.43;70.05
42297;BME280;72430;47.456;19.016;2024-03-17T00:51:53;100584.13;;;12.33;70.82
42297;BME280;72430;47.456;19.016;2024-03-17T00:54:53;100580.16;;;12.37;70.47
42297;BME280;72430;47.456;19.016;2024-03-17T00:57:54;100577.47;;;12.27;70.52
42297;BME280;72430;47.456;19.016;2024-03-17T01:00:55;100578.31;;;12.28;70.28
42297;BME280;72430;47.456;19.016;2024-03-17T01:03:56;100584.84;;;12.25;70.99
42297;BME280;72430;47.456;19.016;2024-03-17T01:06:57;100580.75;;;12.21;70.91
42297;BME280;72430;47.456;19.016;2024-03-17T01:09:57;100588.13;;;12.19;71.51
42297;BME280;72430;47.456;19.016;2024-03-17T01:12:58;100584.44;;;12.10;71.73
42297;BME280;72430;47.456;19.016;2024-03-17T01:15:59;100585.84;;;12.14;71.07
42297;BME280;72430;47.456;19.016;2024-03-17T01:19:00;100576.31;;;12.00;72.54
42297;BME280;72430;47.456;19.016;2024-03-17T01:22:01;100579.00;;;12.00;72.08
42297;BME280;72430;47.456;19.016;2024-03-17T01:25:03;100581.84;;;11.89;72.06
42297;BME280;72430;47.456;19.016;2024-03-17T01:28:04;100584.84;;;11.95;72.29
42297;BME280;72430;47.456;19.016;2024-03-17T01:31:06;100576.19;;;11.92;72.07
42297;BME280;72430;47.456;19.016;2024-03-17T01:34:07;100579.28;;;11.87;72.85
42297;BME280;72430;47.456;19.016;2024-03-17T01:37:08;100576.75;;;11.86;72.39
42297;BME280;72430;47.456;19.016;2024-03-17T01:40:09;100575.31;;;11.91;72.30
42297;BME280;72430;47.456;19.016;2024-03-17T01:43:10;100574.47;;;11.91;72.43
42297;BME280;72430;47.456;19.016;2024-03-17T01:46:16;100575.31;;;11.72;73.02
42297;BME280;72430;47.456;19.016;2024-03-17T01:49:20;100591.19;;;11.75;73.17
42297;BME280;72430;47.456;19.016;2024-03-17T01:52:21;100584.97;;;11.74;73.05
42297;BME280;72430;47.456;19.016;2024-03-17T01:55:22;100589.06;;;11.68;73.20
42297;BME280;72430;47.456;19.016;2024-03-17T01:58:25;100581.97;;;11.67;72.86
42297;BME280;72430;47.456;19.016;2024-03-17T02:01:26;100594.31;;;11.70;74.06
42297;BME280;72430;47.456;19.016;2024-03-17T02:04:27;100588.03;;;11.60;74.24
42297;BME280;72430;47.456;19.016;2024-03-17T02:07:28;100608.91;;;11.58;73.60
42297;BME280;72430;47.456;19.016;2024-03-17T02:10:29;100603.50;;;11.48;74.69
42297;BME280;72430;47.456;19.016;2024-03-17T02:13:30;100602.53;;;11.59;74.48
42297;BME280;72430;47.456;19.016;2024-03-17T02:16:30;100613.88;;;11.62;74.52
42297;BME280;72430;47.456;19.016;2024-03-17T02:19:31;100618.13;;;11.55;74.43
42297;BME280;72430;47.456;19.016;2024-03-17T02:22:32;100617.88;;;11.68;74.18
42297;BME280;72430;47.456;19.016;2024-03-17T02:25:33;100621.53;;;11.57;73.40
42297;BME280;72430;47.456;19.016;2024-03-17T02:28:41;100637.53;;;11.39;75.87
42297;BME280;72430;47.456;19.016;2024-03-17T02:31:42;100629.78;;;11.55;74.59
42297;BME280;72430;47.456;19.016;2024-03-17T02:34:43;100628.03;;;11.45;75.53
42297;BME280;72430;47.456;19.016;2024-03-17T02:37:45;100637.25;;;11.42;75.71
42297;BME280;72430;47.456;19.016;2024-03-17T02:40:46;100647.19;;;11.41;75.78
42297;BME280;72430;47.456;19.016;2024-03-17T02:43:47;100652.53;;;11.32;75.38
42297;BME280;72430;47.456;19.016;2024-03-17T02:46:48;100645.50;;;11.50;74.42
42297;BME280;72430;47.456;19.016;2024-03-17T02:49:49;100644.88;;;11.37;74.86
42297;BME280;72430;47.456;19.016;2024-03-17T02:52:51;100643.47;;;11.33;75.23
42297;BME280;72430;47.456;19.016;2024-03-17T02:55:51;100641.38;;;11.05;76.97
42297;BME280;72430;47.456;19.016;2024-03-17T02:58:52;100636.44;;;10.89;76.87
42297;BME280;72430;47.456;19.016;2024-03-17T03:01:54;100627.59;;;11.08;76.67
42297;BME280;72430;47.456;19.016;2024-03-17T03:04:55;100623.53;;;11.14;75.37
42297;BME280;72430;47.456;19.016;2024-03-17T03:07:56;100621.13;;;10.90;77.00
42297;BME280;72430;47.456;19.016;2024-03-17T03:10:57;100623.97;;;11.19;75.45
42297;BME280;72430;47.456;19.016;2024-03-17T03:13:57;100640.41;;;11.16;75.02
42297;BME280;72430;47.456;19.016;2024-03-17T03:16:58;100636.94;;;11.04;75.62
42297;BME280;72430;47.456;19.016;2024-03-17T03:19:59;100633.63;;;10.91;77.02
42297;BME280;72430;47.456;19.016;2024-03-17T03:23:01;100636.06;;;10.94;75.71
42297;BME280;72430;47.456;19.016;2024-03-17T03:26:03;100655.75;;;10.94;75.27
42297;BME280;72430;47.456;19.016;2024-03-17T03:29:04;100647.13;;;11.00;71.80
42297;BME280;72430;47.456;19.016;2024-03-17T03:32:05;100650.75;;;10.90;72.82
42297;BME280;72430;47.456;19.016;2024-03-17T03:35:08;100646.63;;;10.85;72.59
42297;BME280;72430;47.456;19.016;2024-03-17T03:38:10;100641.66;;;10.81;73.78
42297;BME280;72430;47.456;19.016;2024-03-17T03:41:13;100646.09;;;10.70;72.89
42297;BME280;72430;47.456;19.016;2024-03-17T03:44:14;100653.00;;;10.84;72.34
42297;BME280;72430;47.456;19.016;2024-03-17T03:47:15;100666.06;;;10.68;73.50
42297;BME280;72430;47.456;19.016;2024-03-17T03:50:20;100655.34;;;10.78;73.41
42297;BME280;72430;47.456;19.016;2024-03-17T03:53:24;100658.13;;;10.66;73.07
42297;BME280;72430;47.456;19.016;2024-03-17T03:56:25;100682.91;;;10.48;74.55
42297;BME280;72430;47.456;19.016;2024-03-17T03:59:26;100682.34;;;10.45;74.78
42297;BME280;72430;47.456;19.016;2024-03-17T04:02:27;100683.22;;;10.34;75.74
42297;BME280;72430;47.456;19.016;2024-03-17T04:05:32;100688.50;;;10.24;75.53
42297;BME280;72430;47.456;19.016;2024-03-17T04:08:35;100695.59;;;10.25;74.83
42297;BME280;72430;47.456;19.016;2024-03-17T04:11:36;100690.22;;;10.25;73.36
42297;BME280;72430;47.456;19.016;2024-03-17T04:14:36;100697.19;;;10.28;71.64
42297;BME280;72430;47.456;19.016;2024-03-17T04:17:38;100690.72;;;10.19;71.77
42297;BME280;72430;47.456;19.016;2024-03-17T04:20:40;100710.06;;;10.13;71.05
42297;BME280;72430;47.456;19.016;2024-03-17T04:23:41;100720.72;;;10.14;70.70
42297;BME280;72430;47.456;19.016;2024-03-17T04:26:42;100713.97;;;10.08;70.39
42297;BME280;72430;47.456;19.016;2024-03-17T04:29:46;100705.03;;;10.19;70.58
42297;BME280;72430;47.456;19.016;2024-03-17T04:32:48;100716.69;;;9.97;71.10
42297;BME280;72430;47.456;19.016;2024-03-17T04:35:49;100710.69;;;10.05;71.80
42297;BME280;72430;47.456;19.016;2024-03-17T04:38:50;100704.72;;;10.01;72.66
42297;BME280;72430;47.456;19.016;2024-03-17T04:41:51;100702.53;;;9.84;73.06
42297;BME280;72430;47.456;19.016;2024-03-17T04:44:52;100702.75;;;10.03;73.25
42297;BME280;72430;47.456;19.016;2024-03-17T04:47:53;100700.34;;;9.89;74.11
42297;BME280;72430;47.456;19.016;2024-03-17T04:50:54;100711.09;;;9.89;73.20
42297;BME280;72430;47.456;19.016;2024-03-17T04:53:55;100700.09;;;9.80;73.88
42297;BME280;72430;47.456;19.016;2024-03-17T04:56:56;100697.78;;;9.87;73.89
42297;BME280;72430;47.456;19.016;2024-03-17T04:59:57;100698.78;;;9.75;74.48
42297;BME280;72430;47.456;19.016;2024-03-17T05:02:57;100707.34;;;9.69;74.47
42297;BME280;72430;47.456;19.016;2024-03-17T05:06:00;100710.63;;;9.49;73.58
42297;BME280;72430;47.456;19.016;2024-03-17T05:09:02;100716.28;;;9.58;72.13
42297;BME280;72430;47.456;19.016;2024-03-17T05:12:05;100710.50;;;9.39;71.98
42297;BME280;72430;47.456;19.016;2024-03-17T05:15:06;100713.31;;;9.49;71.40
42297;BME280;72430;47.456;19.016;2024-03-17T05:18:07;100711.88;;;9.34;72.25
42297;BME280;72430;47.456;19.016;2024-03-17T05:21:08;100737.75;;;9.35;71.75
42297;BME280;72430;47.456;19.016;2024-03-17T05:24:09;100733.09;;;9.25;70.34
42297;BME280;72430;47.456;19.016;2024-03-17T05:27:10;100736.63;;;9.15;70.79
42297;BME280;72430;47.456;19.016;2024-03-17T05:30:11;100755.06;;;9.19;69.99
42297;BME280;72430;47.456;19.016;2024-03-17T05:33:12;100762.59;;;9.03;70.89
42297;BME280;72430;47.456;19.016;2024-03-17T05:36:13;100766.03;;;9.05;70.46
42297;BME280;72430;47.456;19.016;2024-03-17T05:39:14;100766.66;;;9.08;68.63
42297;BME280;72430;47.456;19.016;2024-03-17T05:42:14;100775.31;;;9.12;69.80
42297;BME280;72430;47.456;19.016;2024-03-17T05:45:15;100770.50;;;8.93;68.75
42297;BME280;72430;47.456;19.016;2024-03-17T05:48:17;100775.59;;;8.84;66.89
42297;BME280;72430;47.456;19.016;2024-03-17T05:51:18;100771.50;;;9.03;66.27
42297;BME280;72430;47.456;19.016;2024-03-17T05:54:18;100766.78;;;9.18;65.16
42297;BME280;72430;47.456;19.016;2024-03-17T05:57:19;100778.59;;;9.04;64.98
42297;BME280;72430;47.456;19.016;2024-03-17T06:00:20;100771.00;;;8.98;64.23
42297;BME280;72430;47.456;19.016;2024-03-17T06:03:21;100778.03;;;8.88;64.78
42297;BME280;72430;47.456;19.016;2024-03-17T06:06:22;100768.06;;;9.01;64.16
42297;BME280;72430;47.456;19.016;2024-03-17T06:09:23;100753.94;;;9.10;62.65
42297;BME280;72430;47.456;19.016;2024-03-17T06:12:24;100762.38;;;9.06;62.92
42297;BME280;72430;47.456;19.016;2024-03-17T06:15:25;100762.13;;;9.09;62.86
42297;BME280;72430;47.456;19.016;2024-03-17T06:18:27;100762.78;;;9.47;61.30
42297;BME280;72430;47.456;19.016;2024-03-17T06:21:28;100756.06;;;9.30;61.50
42297;BME280;72430;47.456;19.016;2024-03-17T06:24:29;100755.44;;;9.26;63.23
42297;BME280;72430;47.456;19.016;2024-03-17T06:27:30;100761.09;;;9.46;62.96
42297;BME280;72430;47.456;19.016;2024-03-17T06:30:31;100757.41;;;9.35;61.93
42297;BME280;72430;47.456;19.016;2024-03-17T06:33:33;100761.94;;;9.46;61.49
42297;BME280;72430;47.456;19.016;2024-03-17T06:36:34;100759.59;;;9.42;59.67
42297;BME280;72430;47.456;19.016;2024-03-17T06:39:34;100759.88;;;9.50;61.26
42297;BME280;72430;47.456;19.016;2024-03-17T06:42:35;100761.09;;;9.69;60.97
42297;BME280;72430;47.456;19.016;2024-03-17T06:45:36;100766.47;;;9.69;61.07
42297;BME280;72430;47.456;19.016;2024-03-17T06:48:37;100766.97;;;9.97;61.03
42297;BME280;72430;47.456;19.016;2024-03-17T06:51:38;100774.25;;;10.06;59.90
42297;BME280;72430;47.456;19.016;2024-03-17T06:54:39;100777.81;;;10.18;58.82
42297;BME280;72430;47.456;19.016;2024-03-17T06:57:43;100768.88;;;10.17;58.46
42297;BME280;72430;47.456;19.016;2024-03-17T07:00:58;100767.03;;;10.29;57.29
42297;BME280;72430;47.456;19.016;2024-03-17T07:03:59;100768.22;;;10.37;57.58
42297;BME280;72430;47.456;19.016;2024-03-17T07:07:00;100772.66;;;10.70;58.75
42297;BME280;72430;47.456;19.016;2024-03-17T07:10:01;100772.97;;;10.56;55.68
42297;BME280;72430;47.456;19.016;2024-03-17T07:13:05;100782.38;;;10.61;56.85
42297;BME280;72430;47.456;19.016;2024-03-17T07:16:06;100782.72;;;10.68;55.67
42297;BME280;72430;47.456;19.016;2024-03-17T07:19:07;100780.25;;;10.98;56.32
42297;BME280;72430;47.456;19.016;2024-03-17T07:22:08;100778.72;;;10.84;55.14
42297;BME280;72430;47.456;19.016;2024-03-17T07:25:08;100782.28;;;10.84;54.68
42297;BME280;72430;47.456;19.016;2024-03-17T07:28:09;100777.94;;;10.72;55.05
42297;BME280;72430;47.456;19.016;2024-03-17T07:31:10;100785.50;;;10.99;55.09
42297;BME280;72430;47.456;19.016;2024-03-17T07:34:12;100779.72;;;11.04;55.45
42297;BME280;72430;47.456;19.016;2024-03-17T07:37:13;100778.94;;;10.92;53.35
42297;BME280;72430;47.456;19.016;2024-03-17T07:40:13;100766.59;;;11.11;53.64
42297;BME280;72430;47.456;19.016;2024-03-17T07:43:15;100774.69;;;11.11;52.47
42297;BME280;72430;47.456;19.016;2024-03-17T07:46:16;100781.38;;;11.17;51.86
42297;BME280;72430;47.456;19.016;2024-03-17T07:49:17;100790.78;;;11.01;50.62
42297;BME280;72430;47.456;19.016;2024-03-17T07:52:19;100781.72;;;11.23;52.48
42297;BME280;72430;47.456;19.016;2024-03-17T07:55:20;100787.66;;;11.48;52.42
42297;BME280;72430;47.456;19.016;2024-03-17T07:58:20;100779.41;;;11.40;51.95
42297;BME280;72430;47.456;19.016;2024-03-17T08:01:21;100787.28;;;11.53;50.55
42297;BME280;72430;47.456;19.016;2024-03-17T08:04:22;100788.38;;;11.72;50.16
42297;BME280;72430;47.456;19.016;2024-03-17T08:07:23;100785.75;;;11.91;50.46
42297;BME280;72430;47.456;19.016;2024-03-17T08:10:24;100792.53;;;12.17;51.12
42297;BME280;72430;47.456;19.016;2024-03-17T08:13:25;100800.53;;;12.28;49.18
42297;BME280;72430;47.456;19.016;2024-03-17T08:16:26;100794.09;;;12.19;49.03
42297;BME280;72430;47.456;19.016;2024-03-17T08:19:27;100792.84;;;11.92;47.32
42297;BME280;72430;47.456;19.016;2024-03-17T08:22:28;100790.06;;;12.04;48.55
42297;BME280;72430;47.456;19.016;2024-03-17T08:25:29;100813.16;;;11.97;47.98
42297;BME280;72430;47.456;19.016;2024-03-17T08:28:30;100801.78;;;12.24;49.49
42297;BME280;72430;47.456;19.016;2024-03-17T08:31:31;100807.50;;;12.41;47.73
42297;BME280;72430;47.456;19.016;2024-03-17T08:34:32;100815.63;;;12.60;46.46
42297;BME280;72430;47.456;19.016;2024-03-17T08:37:36;100814.63;;;12.52;47.74
42297;BME280;72430;47.456;19.016;2024-03-17T08:40:36;100816.25;;;12.74;47.19
42297;BME280;72430;47.456;19.016;2024-03-17T08:43:37;100821.53;;;12.25;43.65
42297;BME280;72430;47.456;19.016;2024-03-17T08:46:39;100825.59;;;12.50;45.82
42297;BME280;72430;47.456;19.016;2024-03-17T08:49:39;100840.91;;;12.40;43.71
42297;BME280;72430;47.456;19.016;2024-03-17T08:52:40;100828.78;;;12.24;43.78
42297;BME280;72430;47.456;19.016;2024-03-17T08:55:41;100819.94;;;12.12;42.40
42297;BME280;72430;47.456;19.016;2024-03-17T08:58:42;100827.59;;;12.68;44.65
42297;BME280;72430;47.456;19.016;2024-03-17T09:01:43;100809.66;;;12.67;43.01
42297;BME280;72430;47.456;19.016;2024-03-17T09:04:44;100828.44;;;12.68;42.23
42297;BME280;72430;47.456;19.016;2024-03-17T09:07:44;100820.44;;;12.47;42.78
42297;BME280;72430;47.456;19.016;2024-03-17T09:10:47;100822.78;;;12.81;42.99
42297;BME280;72430;47.456;19.016;2024-03-17T09:13:48;100822.34;;;12.66;41.91
42297;BME280;72430;47.456;19.016;2024-03-17T09:16:48;100836.31;;;12.30;42.07
42297;BME280;72430;47.456;19.016;2024-03-17T09:19:50;100828.44;;;12.68;41.12
42297;BME280;72430;47.456;19.016;2024-03-17T09:22:50;100826.78;;;13.07;44.06
42297;BME280;72430;47.456;19.016;2024-03-17T09:25:59;100837.28;;;13.39;42.23
42297;BME280;72430;47.456;19.016;2024-03-17T09:29:01;100837.63;;;13.74;43.17
42297;BME280;72430;47.456;19.016;2024-03-17T09:32:02;100824.06;;;13.84;40.89
42297;BME280;72430;47.456;19.016;2024-03-17T09:35:04;100826.88;;;14.02;40.73
42297;BME280;72430;47.456;19.016;2024-03-17T09:38:05;100826.59;;;13.95;40.12
42297;BME280;72430;47.456;19.016;2024-03-17T09:41:07;100822.97;;;14.15;39.05
42297;BME280;72430;47.456;19.016;2024-03-17T09:44:12;100837.13;;;13.99;39.61
42297;BME280;72430;47.456;19.016;2024-03-17T09:47:20;100836.59;;;13.95;39.74
42297;BME280;72430;47.456;19.016;2024-03-17T09:50:25;100829.06;;;13.79;41.79
42297;BME280;72430;47.456;19.016;2024-03-17T09:53:29;100824.31;;;14.01;39.37
42297;BME280;72430;47.456;19.016;2024-03-17T09:56:31;100836.91;;;13.82;38.37
42297;BME280;72430;47.456;19.016;2024-03-17T09:59:32;100837.47;;;13.86;37.58
42297;BME280;72430;47.456;19.016;2024-03-17T10:02:33;100829.09;;;13.69;37.85
42297;BME280;72430;47.456;19.016;2024-03-17T10:05:33;100844.09;;;13.63;37.52
42297;BME280;72430;47.456;19.016;2024-03-17T10:08:43;100816.75;;;13.56;37.99
42297;BME280;72430;47.456;19.016;2024-03-17T10:11:44;100819.34;;;13.96;35.71
42297;BME280;72430;47.456;19.016;2024-03-17T10:15:00;100814.75;;;13.96;36.44
42297;BME280;72430;47.456;19.016;2024-03-17T10:18:01;100808.69;;;14.41;37.87
42297;BME280;72430;47.456;19.016;2024-03-17T10:21:02;100798.66;;;14.51;36.95
42297;BME280;72430;47.456;19.016;2024-03-17T10:27:15;100789.13;;;14.47;37.47
42297;BME280;72430;47.456;19.016;2024-03-17T10:30:19;100783.53;;;14.76;36.20
42297;BME280;72430;47.456;19.016;2024-03-17T10:33:24;100771.44;;;15.07;37.65
42297;BME280;72430;47.456;19.016;2024-03-17T10:36:27;100769.94;;;14.40;35.86
42297;BME280;72430;47.456;19.016;2024-03-17T10:39:28;100772.66;;;14.95;36.87
42297;BME280;72430;47.456;19.016;2024-03-17T10:42:33;100771.13;;;15.37;35.82
42297;BME280;72430;47.456;19.016;2024-03-17T10:45:36;100769.84;;;15.49;35.72
42297;BME280;72430;47.456;19.016;2024-03-17T10:48:41;100752.88;;;15.47;35.22
42297;BME280;72430;47.456;19.016;2024-03-17T10:51:44;100763.97;;;15.09;34.63
42297;BME280;72430;47.456;19.016;2024-03-17T10:54:50;100782.75;;;15.29;34.53
42297;BME280;72430;47.456;19.016;2024-03-17T10:57:54;100780.81;;;15.21;34.66
42297;BME280;72430;47.456;19.016;2024-03-17T11:01:01;100770.53;;;15.51;34.94
42297;BME280;72430;47.456;19.016;2024-03-17T11:04:04;100778.69;;;15.25;33.53
42297;BME280;72430;47.456;19.016;2024-03-17T11:07:07;100770.59;;;15.33;33.56
42297;BME280;72430;47.456;19.016;2024-03-17T11:10:23;100763.56;;;15.49;33.49
42297;BME280;72430;47.456;19.016;2024-03-17T11:13:27;100754.94;;;15.27;35.56
42297;BME280;72430;47.456;19.016;2024-03-17T11:16:28;100747.13;;;15.50;32.72
42297;BME280;72430;47.456;19.016;2024-03-17T11:19:28;100759.06;;;15.92;34.77
42297;BME280;72430;47.456;19.016;2024-03-17T11:22:41;100752.22;;;16.31;32.77
42297;BME280;72430;47.456;19.016;2024-03-17T11:25:52;100777.22;;;16.43;31.42
42297;BME280;72430;47.456;19.016;2024-03-17T11:28:52;100769.41;;;16.40;32.09
42297;BME280;72430;47.456;19.016;2024-03-17T11:31:54;100749.25;;;17.09;34.41
42297;BME280;72430;47.456;19.016;2024-03-17T11:35:13;100760.63;;;17.13;32.22
42297;BME280;72430;47.456;19.016;2024-03-17T11:41:52;100751.97;;;18.22;31.27
42297;BME280;72430;47.456;19.016;2024-03-17T11:44:56;100747.81;;;18.82;30.66
42297;BME280;72430;47.456;19.016;2024-03-17T11:47:57;100742.59;;;19.18;31.60
42297;BME280;72430;47.456;19.016;2024-03-17T11:50:59;100748.97;;;20.31;31.32
42297;BME280;72430;47.456;19.016;2024-03-17T11:54:00;100748.66;;;19.74;29.84
42297;BME280;72430;47.456;19.016;2024-03-17T11:57:02;100751.53;;;19.88;27.28
42297;BME280;72430;47.456;19.016;2024-03-17T12:00:04;100756.19;;;19.42;29.59
42297;BME280;72430;47.456;19.016;2024-03-17T12:03:10;100744.59;;;19.70;28.00
42297;BME280;72430;47.456;19.016;2024-03-17T12:06:14;100739.84;;;19.94;25.44
42297;BME280;72430;47.456;19.016;2024-03-17T12:09:21;100730.53;;;21.05;27.59
42297;BME280;72430;47.456;19.016;2024-03-17T12:12:23;100713.59;;;21.52;27.29
42297;BME280;72430;47.456;19.016;2024-03-17T12:15:24;100712.84;;;21.72;25.77
42297;BME280;72430;47.456;19.016;2024-03-17T12:18:26;100712.53;;;21.89;23.61
42297;BME280;72430;47.456;19.016;2024-03-17T12:21:30;100711.72;;;21.59;25.49
42297;BME280;72430;47.456;19.016;2024-03-17T12:24:36;100699.66;;;22.92;23.61
42297;BME280;72430;47.456;19.016;2024-03-17T12:27:37;100714.84;;;23.35;23.34
42297;BME280;72430;47.456;19.016;2024-03-17T12:30:39;100709.59;;;23.86;21.17
42297;BME280;72430;47.456;19.016;2024-03-17T12:33:39;100722.50;;;25.40;20.74
42297;BME280;72430;47.456;19.016;2024-03-17T12:36:46;100710.50;;;26.21;18.94
42297;BME280;72430;47.456;19.016;2024-03-17T12:39:48;100714.91;;;27.43;17.85
42297;BME280;72430;47.456;19.016;2024-03-17T12:42:50;100710.97;;;28.50;18.12
42297;BME280;72430;47.456;19.016;2024-03-17T12:45:55;100713.97;;;28.94;16.58
42297;BME280;72430;47.456;19.016;2024-03-17T12:48:59;100702.53;;;29.92;15.57
42297;BME280;72430;47.456;19.016;2024-03-17T12:52:01;100695.13;;;30.86;14.92
42297;BME280;72430;47.456;19.016;2024-03-17T12:55:04;100689.00;;;31.80;16.10
42297;BME280;72430;47.456;19.016;2024-03-17T12:58:24;100698.16;;;31.75;14.37
42297;BME280;72430;47.456;19.016;2024-03-17T13:01:43;100706.34;;;32.03;15.26
42297;BME280;72430;47.456;19.016;2024-03-17T13:04:44;100702.97;;;31.85;15.33
42297;BME280;72430;47.456;19.016;2024-03-17T13:07:46;100721.97;;;33.60;13.02
42297;BME280;72430;47.456;19.016;2024-03-17T13:10:47;100721.28;;;29.80;13.50
42297;BME280;72430;47.456;19.016;2024-03-17T13:13:48;100721.22;;;31.60;13.45
42297;BME280;72430;47.456;19.016;2024-03-17T13:16:49;100708.22;;;31.82;13.24
42297;BME280;72430;47.456;19.016;2024-03-17T13:19:51;100708.78;;;30.05;13.11
42297;BME280;72430;47.456;19.016;2024-03-17T13:22:52;100692.91;;;28.93;14.35
42297;BME280;72430;47.456;19.016;2024-03-17T13:25:53;100685.38;;;30.18;15.16
42297;BME280;72430;47.456;19.016;2024-03-17T13:28:54;100686.06;;;29.41;15.42
42297;BME280;72430;47.456;19.016;2024-03-17T13:31:54;100682.56;;;28.54;16.87
42297;BME280;72430;47.456;19.016;2024-03-17T13:34:55;100675.84;;;27.63;16.59
42297;BME280;72430;47.456;19.016;2024-03-17T13:37:57;100679.31;;;26.51;18.41
42297;BME280;72430;47.456;19.016;2024-03-17T13:41:02;100674.63;;;26.51;16.74
42297;BME280;72430;47.456;19.016;2024-03-17T13:44:05;100668.09;;;27.00;16.30
42297;BME280;72430;47.456;19.016;2024-03-17T13:47:06;100652.44;;;26.70;17.36
42297;BME280;72430;47.456;19.016;2024-03-17T13:50:09;100650.75;;;27.82;16.01
42297;BME280;72430;47.456;19.016;2024-03-17T13:53:16;100651.38;;;27.31;17.05
42297;BME280;72430;47.456;19.016;2024-03-17T13:56:16;100636.69;;;26.71;16.46
42297;BME280;72430;47.456;19.016;2024-03-17T13:59:17;100647.47;;;26.06;17.60
42297;BME280;72430;47.456;19.016;2024-03-17T14:02:18;100652.38;;;26.34;18.28
42297;BME280;72430;47.456;19.016;2024-03-17T14:05:24;100668.09;;;26.03;17.75
42297;BME280;72430;47.456;19.016;2024-03-17T14:08:25;100657.00;;;25.60;18.23
42297;BME280;72430;47.456;19.016;2024-03-17T14:11:26;100655.75;;;25.75;17.88
42297;BME280;72430;47.456;19.016;2024-03-17T14:14:27;100649.69;;;25.47;18.29
42297;BME280;72430;47.456;19.016;2024-03-17T14:17:29;100658.25;;;24.76;18.68
42297;BME280;72430;47.456;19.016;2024-03-17T14:20:29;100655.84;;;25.68;18.92
42297;BME280;72430;47.456;19.016;2024-03-17T14:23:30;100647.94;;;25.72;18.17
42297;BME280;72430;47.456;19.016;2024-03-17T14:26:31;100664.25;;;25.17;18.71
42297;BME280;72430;47.456;19.016;2024-03-17T14:29:32;100667.19;;;24.97;18.09
42297;BME280;72430;47.456;19.016;2024-03-17T14:32:33;100650.16;;;24.82;17.35
42297;BME280;72430;47.456;19.016;2024-03-17T14:35:34;100651.88;;;24.83;17.89
42297;BME280;72430;47.456;19.016;2024-03-17T14:38:37;100646.19;;;25.22;18.82
42297;BME280;72430;47.456;19.016;2024-03-17T14:41:38;100643.88;;;26.05;17.88
42297;BME280;72430;47.456;19.016;2024-03-17T14:44:39;100647.03;;;24.52;17.70
42297;BME280;72430;47.456;19.016;2024-03-17T14:47:39;100638.50;;;24.29;18.24
42297;BME280;72430;47.456;19.016;2024-03-17T14:50:40;100663.66;;;23.41;19.02
42297;BME280;72430;47.456;19.016;2024-03-17T14:53:41;100645.53;;;23.85;19.38
42297;BME280;72430;47.456;19.016;2024-03-17T14:56:48;100649.75;;;23.22;20.08
42297;BME280;72430;47.456;19.016;2024-03-17T14:59:49;100656.84;;;23.57;19.89
42297;BME280;72430;47.456;19.016;2024-03-17T15:02:51;100650.13;;;23.46;21.03
42297;BME280;72430;47.456;19.016;2024-03-17T15:05:52;100662.28;;;22.64;20.69
42297;BME280;72430;47.456;19.016;2024-03-17T15:08:53;100662.25;;;21.32;22.08
42297;BME280;72430;47.456;19.016;2024-03-17T15:11:54;100659.31;;;20.48;22.79
42297;BME280;72430;47.456;19.016;2024-03-17T15:14:54;100656.97;;;20.02;23.22
42297;BME280;72430;47.456;19.016;2024-03-17T15:17:55;100654.97;;;19.95;23.07
42297;BME280;72430;47.456;19.016;2024-03-17T15:20:56;100649.28;;;20.12;24.33
42297;BME280;72430;47.456;19.016;2024-03-17T15:23:57;100652.94;;;19.97;25.22
42297;BME280;72430;47.456;19.016;2024-03-17T15:26:59;100640.69;;;19.78;24.94
42297;BME280;72430;47.456;19.016;2024-03-17T15:29:59;100645.63;;;18.92;25.04
42297;BME280;72430;47.456;19.016;2024-03-17T15:33:00;100656.72;;;18.91;25.35
42297;BME280;72430;47.456;19.016;2024-03-17T15:36:01;100644.75;;;18.92;25.08
42297;BME280;72430;47.456;19.016;2024-03-17T15:39:04;100649.44;;;18.68;25.66
42297;BME280;72430;47.456;19.016;2024-03-17T15:42:06;100649.91;;;18.02;26.30
42297;BME280;72430;47.456;19.016;2024-03-17T15:45:07;100657.13;;;17.86;27.05